createdAt,value
2022-12-10T00:00:59.266Z,63.8
2022-12-10T00:02:42.970Z,63.8
2022-12-10T00:04:26.683Z,63.8
2022-12-10T00:06:10.375Z,63.7
2022-12-10T00:07:54.083Z,63
2022-12-10T00:09:37.776Z,62.9
2022-12-10T00:11:21.477Z,63
2022-12-10T00:13:05.182Z,62.6
2022-12-10T00:14:48.881Z,62.9
2022-12-10T00:16:32.593Z,63.4
2022-12-10T00:18:16.295Z,63.4
2022-12-10T00:19:59.992Z,63.5
2022-12-10T00:21:43.697Z,63.5
2022-12-10T00:23:27.399Z,63.5
2022-12-10T00:25:11.102Z,63.5
2022-12-10T00:26:54.805Z,63.5
2022-12-10T00:28:38.502Z,63.6
2022-12-10T00:30:22.220Z,63.6
2022-12-10T00:32:05.921Z,63.6
2022-12-10T00:33:49.615Z,63.6
2022-12-10T00:35:33.318Z,63.6
2022-12-10T00:37:17.023Z,63.6
2022-12-10T00:39:00.724Z,63.5
2022-12-10T00:40:44.446Z,62.8
2022-12-10T00:42:28.122Z,62.5
2022-12-10T00:44:11.825Z,62.5
2022-12-10T00:45:55.534Z,62.5
2022-12-10T00:47:39.236Z,63
2022-12-10T00:49:22.942Z,63
2022-12-10T00:51:06.638Z,63
2022-12-10T00:52:50.364Z,63
2022-12-10T00:54:34.053Z,63
2022-12-10T00:56:17.745Z,63
2022-12-10T00:58:01.451Z,63.1
2022-12-10T00:59:45.164Z,63.1
2022-12-10T01:01:28.860Z,63.2
2022-12-10T01:03:12.563Z,63.1
2022-12-10T01:04:56.259Z,63.1
2022-12-10T01:06:39.966Z,63.2
2022-12-10T01:08:23.670Z,63.2
2022-12-10T01:10:07.363Z,63.2
2022-12-10T01:11:51.070Z,63.2
2022-12-10T01:13:34.776Z,63.3
2022-12-10T01:15:18.475Z,63.3
2022-12-10T01:17:02.178Z,63.2
2022-12-10T01:18:45.880Z,62.4
2022-12-10T01:20:29.582Z,61.5
2022-12-10T01:22:13.284Z,61.8
2022-12-10T01:23:56.981Z,62.5
2022-12-10T01:25:40.692Z,62.5
2022-12-10T01:27:24.517Z,62.3
2022-12-10T01:29:08.097Z,61.9
2022-12-10T01:30:51.800Z,61.8
2022-12-10T01:32:35.503Z,61.3
2022-12-10T01:34:19.206Z,61
2022-12-10T01:36:02.911Z,61.6
2022-12-10T01:37:46.601Z,62.1
2022-12-10T01:39:30.312Z,62.1
2022-12-10T01:41:14.038Z,62.2
2022-12-10T01:42:57.715Z,62.3
2022-12-10T01:44:41.413Z,62.3
2022-12-10T01:46:25.124Z,62.4
2022-12-10T01:48:08.826Z,62.4
2022-12-10T01:49:52.544Z,62.4
2022-12-10T01:51:36.235Z,62.5
2022-12-10T01:53:19.934Z,62.6
2022-12-10T01:55:03.632Z,62.7
2022-12-10T01:56:47.331Z,62.6
2022-12-10T01:58:31.039Z,62.6
2022-12-10T02:00:14.747Z,62.8
2022-12-10T02:01:58.515Z,62.8
2022-12-10T02:03:42.151Z,62.8
2022-12-10T02:05:25.847Z,62.8
2022-12-10T02:07:09.551Z,62.9
2022-12-10T02:08:53.265Z,62.9
2022-12-10T02:10:36.955Z,62.9
2022-12-10T02:12:20.660Z,62.9
2022-12-10T02:14:04.369Z,62.9
2022-12-10T02:15:48.059Z,62.9
2022-12-10T02:17:31.767Z,63
2022-12-10T02:19:15.477Z,63
2022-12-10T02:20:59.174Z,63
2022-12-10T02:22:42.881Z,63
2022-12-10T02:24:26.577Z,63
2022-12-10T02:26:10.309Z,63.1
2022-12-10T02:27:53.987Z,63
2022-12-10T02:29:37.677Z,63
2022-12-10T02:31:21.509Z,63.1
2022-12-10T02:33:05.095Z,63.1
2022-12-10T02:34:48.794Z,63
2022-12-10T02:36:32.495Z,62.9
2022-12-10T02:38:16.204Z,63
2022-12-10T02:39:59.904Z,63
2022-12-10T02:41:43.612Z,63
2022-12-10T02:43:27.306Z,63
2022-12-10T02:45:11.010Z,63.1
2022-12-10T02:46:54.716Z,63.1
2022-12-10T02:48:38.414Z,63.1
2022-12-10T02:50:22.117Z,63.1
2022-12-10T02:52:05.827Z,63.1
2022-12-10T02:53:49.526Z,63.1
2022-12-10T02:55:33.234Z,63.2
2022-12-10T02:57:16.939Z,63.2
2022-12-10T02:59:00.635Z,63.2
2022-12-10T03:00:44.334Z,63.2
2022-12-10T03:02:28.032Z,63.2
2022-12-10T03:04:11.739Z,63.2
2022-12-10T03:05:55.522Z,63.2
2022-12-10T03:07:39.146Z,63.3
2022-12-10T03:09:22.868Z,63.3
2022-12-10T03:11:06.551Z,63.3
2022-12-10T03:12:50.250Z,63.3
2022-12-10T03:14:33.958Z,63.3
2022-12-10T03:16:17.651Z,63.3
2022-12-10T03:18:01.353Z,63.3
2022-12-10T03:19:45.067Z,63.3
2022-12-10T03:21:28.755Z,63.3
2022-12-10T03:23:12.463Z,63.3
2022-12-10T03:24:56.181Z,63.3
2022-12-10T03:26:39.873Z,63.3
2022-12-10T03:28:23.573Z,63.3
2022-12-10T03:30:07.272Z,63.3
2022-12-10T03:31:50.978Z,63.2
2022-12-10T03:33:34.689Z,63.2
2022-12-10T03:35:18.386Z,63.2
2022-12-10T03:37:02.089Z,63.2
2022-12-10T03:38:45.789Z,63.2
2022-12-10T03:40:29.493Z,63.2
2022-12-10T03:42:13.212Z,63.2
2022-12-10T03:43:56.892Z,63.2
2022-12-10T03:45:40.601Z,63.2
2022-12-10T03:47:24.307Z,63.2
2022-12-10T03:49:07.998Z,63.2
2022-12-10T03:50:51.700Z,63.2
2022-12-10T03:52:35.412Z,63.2
2022-12-10T03:54:19.107Z,63.1
2022-12-10T03:56:02.812Z,63.1
2022-12-10T03:57:46.512Z,63.2
2022-12-10T03:59:30.220Z,63.2
2022-12-10T04:01:13.926Z,63.2
2022-12-10T04:02:57.786Z,63.2
2022-12-10T04:04:41.331Z,63.2
2022-12-10T04:06:25.109Z,63.3
2022-12-10T04:08:08.726Z,63.3
2022-12-10T04:09:52.428Z,63.3
2022-12-10T04:11:36.134Z,63.3
2022-12-10T04:13:19.844Z,63.3
2022-12-10T04:15:03.544Z,63.3
2022-12-10T04:16:47.241Z,63.3
2022-12-10T04:18:30.950Z,63.3
2022-12-10T04:20:14.646Z,63.3
2022-12-10T04:21:58.346Z,63.3
2022-12-10T04:23:42.060Z,63.3
2022-12-10T04:25:25.759Z,63.3
2022-12-10T04:27:09.457Z,63.3
2022-12-10T04:28:53.181Z,63.3
2022-12-10T04:30:36.872Z,63.3
2022-12-10T04:32:20.569Z,63.3
2022-12-10T04:34:04.267Z,63.3
2022-12-10T04:35:47.954Z,63.3
2022-12-10T04:37:31.665Z,63.4
2022-12-10T04:39:15.378Z,63.3
2022-12-10T04:40:59.073Z,63.3
2022-12-10T04:42:42.788Z,63.3
2022-12-10T04:44:26.473Z,63.3
2022-12-10T04:46:10.183Z,63.3
2022-12-10T04:47:53.890Z,63.4
2022-12-10T04:49:37.583Z,63.3
2022-12-10T04:51:21.276Z,63.4
2022-12-10T04:53:04.981Z,63.4
2022-12-10T04:54:48.695Z,63.3
2022-12-10T04:56:32.402Z,63.3
2022-12-10T04:58:16.093Z,63.3
2022-12-10T04:59:59.795Z,63.3
2022-12-10T05:01:43.510Z,63.3
2022-12-10T05:03:27.209Z,63.3
2022-12-10T05:05:10.910Z,63.4
2022-12-10T05:06:54.614Z,63.3
2022-12-10T05:08:38.322Z,63.3
2022-12-10T05:10:22.021Z,63.3
2022-12-10T05:12:05.717Z,63.3
2022-12-10T05:13:49.421Z,63.3
2022-12-10T05:15:33.129Z,63.3
2022-12-10T05:17:16.824Z,63.3
2022-12-10T05:19:00.533Z,63.3
2022-12-10T05:20:44.233Z,63.3
2022-12-10T05:22:27.944Z,63.4
2022-12-10T05:24:11.644Z,63.3
2022-12-10T05:25:55.341Z,63.4
2022-12-10T05:27:39.046Z,63.4
2022-12-10T05:29:22.750Z,63.4
2022-12-10T05:31:06.450Z,63.3
2022-12-10T05:32:50.157Z,63.3
2022-12-10T05:34:33.860Z,63.3
2022-12-10T05:36:17.556Z,63.3
2022-12-10T05:38:01.275Z,63.3
2022-12-10T05:39:44.966Z,63.3
2022-12-10T05:41:28.667Z,63.3
2022-12-10T05:43:12.372Z,63.3
2022-12-10T05:44:56.065Z,63.3
2022-12-10T05:46:39.780Z,63.3
2022-12-10T05:48:23.485Z,63.3
2022-12-10T05:50:07.175Z,63.3
2022-12-10T05:51:50.875Z,63.3
2022-12-10T05:53:34.577Z,63.3
2022-12-10T05:55:18.289Z,63.3
2022-12-10T05:57:02.005Z,63.3
2022-12-10T05:58:45.685Z,63.2
2022-12-10T06:00:29.389Z,63.2
2022-12-10T06:02:13.092Z,63.2
2022-12-10T06:03:56.795Z,63.2
2022-12-10T06:05:40.493Z,63.2
2022-12-10T06:07:24.189Z,63.2
2022-12-10T06:09:07.901Z,63.2
2022-12-10T06:10:51.614Z,63.2
2022-12-10T06:12:35.304Z,63.2
2022-12-10T06:14:19.015Z,63.2
2022-12-10T06:16:02.718Z,63.2
2022-12-10T06:17:46.405Z,63.2
2022-12-10T06:19:30.121Z,63.2
2022-12-10T06:21:13.818Z,63.2
2022-12-10T06:22:57.524Z,63.1
2022-12-10T06:24:41.228Z,63.1
2022-12-10T06:26:24.934Z,63.2
2022-12-10T06:28:08.637Z,63.2
2022-12-10T06:29:52.345Z,63.2
2022-12-10T06:31:36.037Z,63.1
2022-12-10T06:33:19.755Z,63.1
2022-12-10T06:35:03.452Z,63.1
2022-12-10T06:36:47.153Z,63.1
2022-12-10T06:38:30.856Z,63.1
2022-12-10T06:40:14.563Z,63
2022-12-10T06:41:58.266Z,63
2022-12-10T06:43:41.976Z,62.9
2022-12-10T06:45:25.677Z,62.8
2022-12-10T06:47:09.391Z,62.8
2022-12-10T06:48:53.083Z,62.7
2022-12-10T06:50:36.790Z,62.7
2022-12-10T06:52:20.491Z,62.8
2022-12-10T06:54:04.187Z,63.1
2022-12-10T06:55:47.924Z,63.1
2022-12-10T06:57:31.599Z,63.1
2022-12-10T06:59:15.338Z,63.1
2022-12-10T07:00:58.997Z,63.2
2022-12-10T07:02:42.703Z,63.2
2022-12-10T07:04:26.406Z,63
2022-12-10T07:06:10.116Z,63
2022-12-10T07:07:53.807Z,63.1
2022-12-10T07:09:37.603Z,62.9
2022-12-10T07:11:21.219Z,62.9
2022-12-10T07:13:04.917Z,62.8
2022-12-10T07:14:48.650Z,62.8
2022-12-10T07:16:32.365Z,62.8
2022-12-10T07:18:16.028Z,62.8
2022-12-10T07:19:59.773Z,62.8
2022-12-10T07:21:43.435Z,62.9
2022-12-10T07:23:27.201Z,62.7
2022-12-10T07:25:10.842Z,62.7
2022-12-10T07:26:54.540Z,62.6
2022-12-10T07:28:38.250Z,62.6
2022-12-10T07:30:21.950Z,62.6
2022-12-10T07:32:05.646Z,62.6
2022-12-10T07:33:49.359Z,62.6
2022-12-10T07:35:33.058Z,62.5
2022-12-10T07:37:16.761Z,62.5
2022-12-10T07:39:00.466Z,62.5
2022-12-10T07:40:44.163Z,62.5
2022-12-10T07:42:27.865Z,62.5
2022-12-10T07:44:11.574Z,62.5
2022-12-10T07:45:55.323Z,62.4
2022-12-10T07:47:38.983Z,62.4
2022-12-10T07:49:22.739Z,62.4
2022-12-10T07:51:06.381Z,62.4
2022-12-10T07:52:50.136Z,62.3
2022-12-10T07:54:33.866Z,62.4
2022-12-10T07:56:17.484Z,62.3
2022-12-10T07:58:01.201Z,62.3
2022-12-10T07:59:44.885Z,62.3
2022-12-10T08:01:28.590Z,62.3
2022-12-10T08:03:12.325Z,62.3
2022-12-10T08:04:55.999Z,62.3
2022-12-10T08:06:39.730Z,62.3
2022-12-10T08:08:23.403Z,62.2
2022-12-10T08:10:07.098Z,62.2
2022-12-10T08:11:50.811Z,62.2
2022-12-10T08:13:34.509Z,62.2
2022-12-10T08:15:18.208Z,62.2
2022-12-10T08:17:01.918Z,62.2
2022-12-10T08:18:45.666Z,62.2
2022-12-10T08:20:29.419Z,62.2
2022-12-10T08:22:13.017Z,62.2
2022-12-10T08:23:56.729Z,62.1
2022-12-10T08:25:40.429Z,62.1
2022-12-10T08:27:24.129Z,62.2
2022-12-10T08:29:07.834Z,62.2
2022-12-10T08:30:51.534Z,62.1
2022-12-10T08:32:35.246Z,62.1
2022-12-10T08:34:18.946Z,62.1
2022-12-10T08:36:02.641Z,62.1
2022-12-10T08:37:46.411Z,62.1
2022-12-10T08:39:30.082Z,62.1
2022-12-10T08:41:13.744Z,62.1
2022-12-10T08:42:57.464Z,62
2022-12-10T08:46:24.855Z,62
2022-12-10T08:48:08.559Z,62
2022-12-10T08:49:52.260Z,62
2022-12-10T08:51:35.988Z,62
2022-12-10T08:53:19.670Z,62
2022-12-10T08:55:03.372Z,62
2022-12-10T08:56:47.078Z,62
2022-12-10T08:58:30.777Z,62
2022-12-10T09:00:14.484Z,62
2022-12-10T09:01:58.176Z,62
2022-12-10T09:03:41.908Z,61.9
2022-12-10T09:05:25.591Z,61.9
2022-12-10T09:07:09.297Z,61.9
2022-12-10T09:08:52.996Z,61.9
2022-12-10T09:10:36.700Z,61.9
2022-12-10T09:12:20.404Z,61.9
2022-12-10T09:14:04.109Z,61.9
2022-12-10T09:15:47.818Z,61.8
2022-12-10T09:17:31.517Z,61.9
2022-12-10T09:19:15.219Z,61.8
2022-12-10T09:20:58.923Z,61.8
2022-12-10T09:22:42.622Z,61.8
2022-12-10T09:24:26.331Z,61.8
2022-12-10T09:26:10.029Z,61.8
2022-12-10T09:27:53.727Z,61.7
2022-12-10T09:29:37.434Z,61.7
2022-12-10T09:31:21.144Z,61.7
2022-12-10T09:33:04.832Z,61.7
2022-12-10T09:34:48.551Z,61.7
2022-12-10T09:36:32.234Z,61.7
2022-12-10T09:38:16.031Z,61.7
2022-12-10T09:39:59.646Z,61.7
2022-12-10T09:41:43.349Z,61.7
2022-12-10T09:43:27.070Z,61.7
2022-12-10T09:45:10.762Z,61.6
2022-12-10T09:46:54.455Z,61.7
2022-12-10T09:48:38.158Z,61.6
2022-12-10T09:50:21.864Z,61.6
2022-12-10T09:53:49.276Z,61.6
2022-12-10T09:55:32.960Z,61.6
2022-12-10T09:57:16.676Z,61.6
2022-12-10T09:59:00.379Z,61.5
2022-12-10T10:00:44.072Z,61.5
2022-12-10T10:02:27.776Z,61.5
2022-12-10T10:04:11.487Z,61.5
2022-12-10T10:05:55.184Z,61.5
2022-12-10T10:07:38.892Z,61.5
2022-12-10T10:09:22.587Z,61.5
2022-12-10T10:11:06.297Z,61.5
2022-12-10T10:12:50.006Z,61.5
2022-12-10T10:14:33.694Z,61.5
2022-12-10T10:16:17.399Z,61.5
2022-12-10T10:18:01.106Z,61.4
2022-12-10T10:19:44.803Z,61.5
2022-12-10T10:21:28.515Z,61.5
2022-12-10T10:23:12.231Z,61.4
2022-12-10T10:24:55.912Z,61.4
2022-12-10T10:26:39.676Z,61.5
2022-12-10T10:28:23.314Z,61.5
2022-12-10T10:30:07.016Z,61.4
2022-12-10T10:31:50.729Z,61.4
2022-12-10T10:33:34.421Z,61.4
2022-12-10T10:35:18.128Z,61.4
2022-12-10T10:37:01.836Z,61.4
2022-12-10T10:38:45.534Z,61.3
2022-12-10T10:40:29.244Z,61.3
2022-12-10T10:42:12.939Z,61.4
2022-12-10T10:43:56.644Z,61.4
2022-12-10T10:45:40.347Z,61.3
2022-12-10T10:47:24.069Z,61.3
2022-12-10T10:49:07.749Z,61.3
2022-12-10T10:50:51.462Z,61.2
2022-12-10T10:52:35.162Z,61.3
2022-12-10T10:54:18.895Z,61.2
2022-12-10T10:56:02.571Z,61.2
2022-12-10T10:57:46.278Z,61.2
2022-12-10T10:59:29.979Z,61.2
2022-12-10T11:01:13.669Z,61.2
2022-12-10T11:02:57.370Z,61.2
2022-12-10T11:04:41.078Z,61.2
2022-12-10T11:06:24.854Z,61.2
2022-12-10T11:08:08.481Z,61.2
2022-12-10T11:09:52.187Z,61.2
2022-12-10T11:11:35.884Z,61.2
2022-12-10T11:13:19.585Z,61.2
2022-12-10T11:15:03.288Z,61.2
2022-12-10T11:16:46.997Z,61.1
2022-12-10T11:18:30.701Z,61.2
2022-12-10T11:20:14.397Z,61.2
2022-12-10T11:21:58.101Z,61.2
2022-12-10T11:23:41.812Z,61.2
2022-12-10T11:25:25.531Z,61.1
2022-12-10T11:27:09.214Z,61.2
2022-12-10T11:28:52.917Z,61.1
2022-12-10T11:30:36.620Z,61.1
2022-12-10T11:32:20.342Z,61.1
2022-12-10T11:34:04.026Z,61.1
2022-12-10T11:35:47.724Z,61.1
2022-12-10T11:37:31.434Z,61.1
2022-12-10T11:39:15.127Z,61.1
2022-12-10T11:40:58.840Z,61.1
2022-12-10T11:42:42.551Z,61
2022-12-10T11:44:26.239Z,61
2022-12-10T11:46:09.933Z,61
2022-12-10T11:47:53.644Z,61
2022-12-10T11:49:37.352Z,61
2022-12-10T11:51:21.070Z,61
2022-12-10T11:53:04.765Z,61
2022-12-10T11:54:48.457Z,61.1
2022-12-10T11:56:32.163Z,61.2
2022-12-10T11:58:15.857Z,61.4
2022-12-10T11:59:59.565Z,61.4
2022-12-10T12:01:43.272Z,61.3
2022-12-10T12:03:26.966Z,61.1
2022-12-10T12:05:10.675Z,61.1
2022-12-10T12:06:54.376Z,61
2022-12-10T12:08:38.083Z,60.9
2022-12-10T12:10:21.865Z,60.9
2022-12-10T12:12:05.498Z,60.9
2022-12-10T12:13:49.185Z,60.9
2022-12-10T12:15:32.880Z,60.9
2022-12-10T12:17:16.594Z,60.9
2022-12-10T12:19:00.297Z,60.9
2022-12-10T12:20:43.998Z,60.9
2022-12-10T12:22:27.701Z,60.8
2022-12-10T12:24:11.409Z,60.9
2022-12-10T12:25:55.106Z,60.9
2022-12-10T12:27:38.809Z,60.9
2022-12-10T12:29:22.564Z,60.9
2022-12-10T12:31:06.211Z,61.2
2022-12-10T12:32:49.914Z,61.3
2022-12-10T12:34:33.665Z,61.1
2022-12-10T12:36:17.323Z,61
2022-12-10T12:38:01.025Z,61
2022-12-10T12:39:44.745Z,60.9
2022-12-10T12:41:28.431Z,61
2022-12-10T12:43:12.139Z,60.9
2022-12-10T12:44:55.837Z,60.9
2022-12-10T12:46:39.543Z,60.9
2022-12-10T12:48:23.250Z,61
2022-12-10T12:50:06.948Z,61
2022-12-10T12:51:50.654Z,60.9
2022-12-10T12:53:34.363Z,61
2022-12-10T12:55:18.057Z,61.1
2022-12-10T12:57:01.763Z,61.1
2022-12-10T12:58:45.464Z,61.1
2022-12-10T13:00:29.167Z,61.1
2022-12-10T13:02:12.878Z,61.1
2022-12-10T13:03:56.568Z,61.1
2022-12-10T13:05:40.278Z,61.1
2022-12-10T13:07:23.977Z,61.1
2022-12-10T13:09:07.673Z,61.2
2022-12-10T13:10:51.382Z,61.1
2022-12-10T13:12:35.089Z,61.2
2022-12-10T13:14:18.798Z,61.1
2022-12-10T13:16:02.498Z,61.2
2022-12-10T13:17:46.186Z,61.4
2022-12-10T13:19:29.888Z,61.3
2022-12-10T13:21:13.590Z,61.3
2022-12-10T13:22:57.302Z,61
2022-12-10T13:24:41.077Z,60.9
2022-12-10T13:26:24.748Z,60.9
2022-12-10T13:28:08.465Z,60.9
2022-12-10T13:29:52.110Z,60.9
2022-12-10T13:31:35.807Z,61
2022-12-10T13:33:19.517Z,60.9
2022-12-10T13:35:03.243Z,60.9
2022-12-10T13:36:46.927Z,60.9
2022-12-10T13:38:30.655Z,61
2022-12-10T13:40:14.339Z,61
2022-12-10T13:41:58.033Z,61
2022-12-10T13:43:41.746Z,61
2022-12-10T13:45:25.450Z,60.9
2022-12-10T13:47:09.148Z,61
2022-12-10T13:48:52.850Z,61
2022-12-10T13:50:36.573Z,61
2022-12-10T13:52:20.338Z,60.9
2022-12-10T13:54:03.953Z,60.8
2022-12-10T13:55:47.648Z,60.8
2022-12-10T13:57:31.352Z,61
2022-12-10T13:59:15.086Z,61.1
2022-12-10T14:00:58.758Z,61.1
2022-12-10T14:02:42.466Z,61
2022-12-10T14:04:26.159Z,60.9
2022-12-10T14:06:09.866Z,60.8
2022-12-10T14:07:53.575Z,60.8
2022-12-10T14:09:37.307Z,60.8
2022-12-10T14:11:20.984Z,60.9
2022-12-10T14:13:04.695Z,60.9
2022-12-10T14:14:48.384Z,61
2022-12-10T14:16:32.088Z,61
2022-12-10T14:18:15.844Z,61
2022-12-10T14:19:59.481Z,61
2022-12-10T14:21:43.200Z,61
2022-12-10T14:23:26.898Z,61
2022-12-10T14:25:10.602Z,61
2022-12-10T14:26:54.303Z,61
2022-12-10T14:28:38.017Z,61
2022-12-10T14:30:21.705Z,61
2022-12-10T14:32:05.407Z,61
2022-12-10T14:33:49.101Z,61
2022-12-10T14:35:32.807Z,61
2022-12-10T14:37:16.508Z,61
2022-12-10T14:39:00.230Z,61
2022-12-10T14:40:43.925Z,61
2022-12-10T14:42:27.617Z,61.1
2022-12-10T14:44:11.327Z,61.2
2022-12-10T14:45:55.089Z,61.2
2022-12-10T14:47:38.727Z,61.2
2022-12-10T14:49:22.431Z,61.2
2022-12-10T14:51:06.138Z,61.2
2022-12-10T14:52:49.838Z,61.2
2022-12-10T14:54:33.543Z,61.2
2022-12-10T14:56:17.254Z,61.2
2022-12-10T14:58:00.950Z,61.1
2022-12-10T14:59:44.651Z,61.1
2022-12-10T15:01:28.347Z,61
2022-12-10T15:03:12.055Z,60.9
2022-12-10T15:04:55.754Z,60.8
2022-12-10T15:06:39.454Z,60.8
2022-12-10T15:08:23.170Z,60.7
2022-12-10T15:10:06.862Z,60.7
2022-12-10T15:11:50.645Z,60.6
2022-12-10T15:13:34.270Z,60.6
2022-12-10T15:15:17.996Z,60.6
2022-12-10T15:17:01.671Z,60.6
2022-12-10T15:18:45.374Z,60.5
2022-12-10T15:20:29.090Z,60.5
2022-12-10T15:22:12.792Z,60.5
2022-12-10T15:23:56.542Z,60.4
2022-12-10T15:25:40.187Z,60.5
2022-12-10T15:27:23.897Z,61.9
2022-12-10T15:29:07.623Z,62.7
2022-12-10T15:30:51.305Z,63.6
2022-12-10T15:32:34.994Z,63.5
2022-12-10T15:34:18.692Z,63.5
2022-12-10T15:36:02.402Z,63.7
2022-12-10T15:37:46.112Z,63.4
2022-12-10T15:39:29.870Z,63.2
2022-12-10T15:41:13.517Z,63.3
2022-12-10T15:42:57.218Z,63.3
2022-12-10T15:44:40.927Z,63.3
2022-12-10T15:46:24.625Z,63.3
2022-12-10T15:48:08.331Z,63.3
2022-12-10T15:49:52.048Z,63.5
2022-12-10T15:51:35.734Z,63.4
2022-12-10T15:53:19.445Z,63.4
2022-12-10T15:55:03.141Z,63.3
2022-12-10T15:56:46.841Z,63.3
2022-12-10T15:58:30.539Z,63.4
2022-12-10T16:00:14.287Z,63.3
2022-12-10T16:01:57.943Z,63.3
2022-12-10T16:03:41.653Z,63.4
2022-12-10T16:05:25.348Z,63.4
2022-12-10T16:07:09.062Z,63.3
2022-12-10T16:08:52.779Z,63.3
2022-12-10T16:10:36.455Z,63.2
2022-12-10T16:12:20.163Z,63.2
2022-12-10T16:14:03.864Z,63.2
2022-12-10T16:15:47.570Z,63.2
2022-12-10T16:17:31.312Z,63.1
2022-12-10T16:19:14.984Z,63.2
2022-12-10T16:20:58.742Z,63.2
2022-12-10T16:22:42.401Z,63.1
2022-12-10T16:24:26.094Z,63
2022-12-10T16:26:09.788Z,62.9
2022-12-10T16:27:53.489Z,62.8
2022-12-10T16:29:37.293Z,62.8
2022-12-10T16:31:20.900Z,62.7
2022-12-10T16:33:04.599Z,62.7
2022-12-10T16:34:48.300Z,62.8
2022-12-10T16:36:32.015Z,62.7
2022-12-10T16:38:15.706Z,62.7
2022-12-10T16:39:59.412Z,62.6
2022-12-10T16:41:43.174Z,62.6
2022-12-10T16:43:26.943Z,62.6
2022-12-10T16:45:10.526Z,62.6
2022-12-10T16:46:54.251Z,62.5
2022-12-10T16:48:38.020Z,62.6
2022-12-10T16:50:21.639Z,62.5
2022-12-10T16:52:05.324Z,62.5
2022-12-10T16:53:49.032Z,62.5
2022-12-10T16:55:32.734Z,62.5
2022-12-10T16:57:16.446Z,62.4
2022-12-10T16:59:00.162Z,62.4
2022-12-10T17:00:43.847Z,62.4
2022-12-10T17:02:27.550Z,62.4
2022-12-10T17:04:11.292Z,62.4
2022-12-10T17:05:54.997Z,62.4
2022-12-10T17:07:38.659Z,62.3
2022-12-10T17:09:22.352Z,62.3
2022-12-10T17:11:06.060Z,62.3
2022-12-10T17:12:49.758Z,62.2
2022-12-10T17:14:33.474Z,62.3
2022-12-10T17:16:17.170Z,62.2
2022-12-10T17:18:00.867Z,62.3
2022-12-10T17:19:44.587Z,62.2
2022-12-10T17:21:28.276Z,62.2
2022-12-10T17:23:11.990Z,62.1
2022-12-10T17:24:55.682Z,62.1
2022-12-10T17:26:39.394Z,62.1
2022-12-10T17:28:23.087Z,62.1
2022-12-10T17:30:06.789Z,62
2022-12-10T17:31:50.505Z,62
2022-12-10T17:33:34.197Z,62
2022-12-10T17:35:17.915Z,62
2022-12-10T17:37:01.600Z,62
2022-12-10T17:38:45.341Z,62
2022-12-10T17:40:29.015Z,62
2022-12-10T17:42:12.703Z,62
2022-12-10T17:43:56.411Z,61.9
2022-12-10T17:45:40.119Z,61.8
2022-12-10T17:47:23.819Z,61.9
2022-12-10T17:49:07.518Z,61.8
2022-12-10T17:50:51.225Z,61.8
2022-12-10T17:52:34.975Z,61.8
2022-12-10T17:54:18.620Z,61.8
2022-12-10T17:56:02.324Z,61.8
2022-12-10T17:57:46.028Z,61.7
2022-12-10T17:59:29.734Z,61.7
2022-12-10T18:01:13.435Z,61.6
2022-12-10T18:02:57.139Z,61.6
2022-12-10T18:04:40.849Z,61.6
2022-12-10T18:06:24.549Z,61.5
2022-12-10T18:08:08.263Z,61.5
2022-12-10T18:09:51.950Z,61.5
2022-12-10T18:11:35.655Z,61.5
2022-12-10T18:13:19.358Z,61.5
2022-12-10T18:15:03.053Z,61.5
2022-12-10T18:16:46.758Z,61.5
2022-12-10T18:18:30.521Z,61.5
2022-12-10T18:20:14.163Z,61.4
2022-12-10T18:21:57.867Z,61.5
2022-12-10T18:23:41.564Z,61.5
2022-12-10T18:25:25.273Z,61.4
2022-12-10T18:27:08.980Z,61.4
2022-12-10T18:28:52.705Z,61.3
2022-12-10T18:30:36.376Z,61.3
2022-12-10T18:32:20.084Z,61.3
2022-12-10T18:34:03.787Z,61.3
2022-12-10T18:35:47.514Z,61.4
2022-12-10T18:37:31.195Z,61.3
2022-12-10T18:39:14.894Z,61.4
2022-12-10T18:40:58.604Z,61.4
2022-12-10T18:42:42.317Z,61.3
2022-12-10T18:44:26.016Z,61.3
2022-12-10T18:46:09.711Z,61.3
2022-12-10T18:47:53.409Z,61.2
2022-12-10T18:49:37.120Z,61.2
2022-12-10T18:51:20.827Z,61.2
2022-12-10T18:53:04.523Z,61.1
2022-12-10T18:54:48.275Z,61.1
2022-12-10T18:56:31.924Z,61.1
2022-12-10T18:58:15.628Z,61.1
2022-12-10T18:59:59.421Z,61
2022-12-10T19:01:43.029Z,61
2022-12-10T19:03:26.741Z,61.1
2022-12-10T19:05:10.521Z,61
2022-12-10T19:06:54.138Z,61
2022-12-10T19:08:37.844Z,61
2022-12-10T19:10:21.541Z,61
2022-12-10T19:12:05.250Z,60.9
2022-12-10T19:13:48.952Z,60.9
2022-12-10T19:15:32.645Z,60.9
2022-12-10T19:17:16.356Z,60.9
2022-12-10T19:19:00.072Z,60.9
2022-12-10T19:20:43.759Z,60.9
2022-12-10T19:22:27.514Z,60.8
2022-12-10T19:24:11.306Z,60.8
2022-12-10T19:25:54.875Z,60.8
2022-12-10T19:27:38.581Z,60.8
2022-12-10T19:29:22.274Z,60.8
2022-12-10T19:31:06.005Z,60.7
2022-12-10T19:32:49.739Z,60.7
2022-12-10T19:34:33.384Z,60.7
2022-12-10T19:36:17.083Z,60.6
2022-12-10T19:38:00.836Z,60.6
2022-12-10T19:39:44.492Z,60.6
2022-12-10T19:41:28.199Z,60.6
2022-12-10T19:43:11.895Z,60.6
2022-12-10T19:44:55.590Z,60.6
2022-12-10T19:46:39.312Z,60.5
2022-12-10T19:48:23.053Z,60.5
2022-12-10T19:50:06.725Z,60.5
2022-12-10T19:51:50.473Z,60.5
2022-12-10T19:53:34.112Z,60.5
2022-12-10T19:55:17.810Z,60.5
2022-12-10T19:57:01.522Z,60.5
2022-12-10T19:58:45.225Z,60.5
2022-12-10T20:00:28.931Z,60.5
2022-12-10T20:02:12.618Z,60.5
2022-12-10T20:03:56.329Z,60.4
2022-12-10T20:05:40.032Z,60.5
2022-12-10T20:07:23.733Z,60.4
2022-12-10T20:09:07.436Z,60.4
2022-12-10T20:10:51.180Z,60.4
2022-12-10T20:12:34.842Z,60.4
2022-12-10T20:14:18.569Z,60.4
2022-12-10T20:16:02.246Z,60.4
2022-12-10T20:17:45.946Z,60.4
2022-12-10T20:19:29.730Z,60.4
2022-12-10T20:21:13.354Z,60.4
2022-12-10T20:22:57.063Z,60.4
2022-12-10T20:24:40.760Z,60.4
2022-12-10T20:26:24.457Z,60.3
2022-12-10T20:28:08.173Z,60.3
2022-12-10T20:29:51.923Z,60.3
2022-12-10T20:31:35.568Z,60.3
2022-12-10T20:33:19.292Z,60.3
2022-12-10T20:35:02.983Z,60.3
2022-12-10T20:36:46.692Z,60.3
2022-12-10T20:38:30.378Z,60.3
2022-12-10T20:40:14.075Z,60.2
2022-12-10T20:41:57.780Z,60.2
2022-12-10T20:43:41.490Z,60.2
2022-12-10T20:45:25.189Z,60.2
2022-12-10T20:47:08.891Z,60.2
2022-12-10T20:48:52.606Z,60.1
2022-12-10T20:50:36.288Z,60.1
2022-12-10T20:52:19.999Z,60.2
2022-12-10T20:54:03.701Z,60.2
2022-12-10T20:55:47.405Z,60.1
2022-12-10T20:57:31.115Z,60.1
2022-12-10T20:59:14.815Z,60.1
2022-12-10T21:00:58.597Z,60.1
2022-12-10T21:02:42.214Z,60.1
2022-12-10T21:04:25.913Z,60
2022-12-10T21:06:09.624Z,60
2022-12-10T21:07:53.324Z,59.9
2022-12-10T21:09:37.037Z,60
2022-12-10T21:11:20.726Z,59.9
2022-12-10T21:13:04.430Z,59.9
2022-12-10T21:14:48.143Z,59.9
2022-12-10T21:16:31.873Z,59.9
2022-12-10T21:18:15.597Z,59.8
2022-12-10T21:19:59.243Z,59.8
2022-12-10T21:21:42.934Z,59.8
2022-12-10T21:23:26.778Z,59.8
2022-12-10T21:25:10.360Z,59.8
2022-12-10T21:26:54.057Z,59.7
2022-12-10T21:28:37.816Z,59.8
2022-12-10T21:30:21.478Z,59.7
2022-12-10T21:32:05.168Z,59.7
2022-12-10T21:33:48.893Z,59.7
2022-12-10T21:35:32.670Z,59.7
2022-12-10T21:37:16.317Z,59.6
2022-12-10T21:38:59.973Z,59.7
2022-12-10T21:40:43.732Z,59.6
2022-12-10T21:42:27.437Z,59.6
2022-12-10T21:44:11.087Z,59.6
2022-12-10T21:45:54.919Z,59.6
2022-12-10T21:47:38.500Z,59.6
2022-12-10T21:49:22.229Z,59.6
2022-12-10T21:51:05.893Z,59.6
2022-12-10T21:52:49.631Z,59.6
2022-12-10T21:54:33.293Z,59.5
2022-12-10T21:56:17.013Z,59.5
2022-12-10T21:58:00.697Z,59.5
2022-12-10T21:59:44.471Z,59.5
2022-12-10T22:01:28.104Z,59.5
2022-12-10T22:03:11.863Z,59.5
2022-12-10T22:04:55.580Z,59.4
2022-12-10T22:06:39.220Z,59.5
2022-12-10T22:08:22.904Z,59.4
2022-12-10T22:10:06.619Z,59.4
2022-12-10T22:11:50.324Z,59.4
2022-12-10T22:13:34.021Z,59.4
2022-12-10T22:15:17.797Z,59.4
2022-12-10T22:17:01.431Z,59.4
2022-12-10T22:18:45.131Z,59.4
2022-12-10T22:20:28.835Z,59.4
2022-12-10T22:22:12.606Z,59.4
2022-12-10T22:23:56.309Z,59.3
2022-12-10T22:25:39.937Z,59.3
2022-12-10T22:27:23.646Z,59.3
2022-12-10T22:29:07.341Z,59.3
2022-12-10T22:30:51.087Z,59.2
2022-12-10T22:32:34.747Z,59.2
2022-12-10T22:34:18.462Z,59.2
2022-12-10T22:36:02.169Z,59.2
2022-12-10T22:37:45.860Z,59.2
2022-12-10T22:39:29.561Z,59.2
2022-12-10T22:41:13.276Z,59.2
2022-12-10T22:42:56.965Z,59.1
2022-12-10T22:44:40.671Z,59.2
2022-12-10T22:46:24.372Z,59.1
2022-12-10T22:48:08.075Z,59.1
2022-12-10T22:49:51.776Z,59.1
2022-12-10T22:51:35.477Z,59.1
2022-12-10T22:53:19.204Z,59.1
2022-12-10T22:55:02.875Z,59.1
2022-12-10T22:56:46.589Z,59.1
2022-12-10T22:58:30.285Z,59.1
2022-12-10T23:00:13.998Z,59
2022-12-10T23:01:57.699Z,59.1
2022-12-10T23:03:41.403Z,59
2022-12-10T23:05:25.104Z,59
2022-12-10T23:07:08.808Z,59
2022-12-10T23:08:52.504Z,59
2022-12-10T23:10:36.210Z,59
2022-12-10T23:12:19.908Z,59
2022-12-10T23:14:03.624Z,58.9
2022-12-10T23:15:47.327Z,58.9